AirNav   Everest Fuels
 
 435 users online  

4NY2 EDO Seaplane Base
College Point, New York, USA

GOING TO COLLEGE POINT?


FAA INFORMATION EFFECTIVE 07 NOVEMBER 2019

Location

FAA Identifier: 4NY2
Lat/Long: 40-47-00.3640N 073-51-58.4870W
40-47.006067N 073-51.974783W
40.7834344,-73.8662464
(estimated)
Elevation: 0 ft. / 0 m (estimated)
Variation: 13W (1985)
Time zone: UTC -5 (UTC -4 during Daylight Saving Time)
Zip code: 11371

Seaplane Base Operations

Seaplane Base use: Private use. Permission required prior to landing
Activation date: 05/1948
Control tower: no
ARTCC: NEW YORK CENTER
FSS: NEW YORK FLIGHT SERVICE STATION
Attendance: MON-FRI 0800-1600
Wind indicator: yes
Segmented circle: no

Seaplane Base Communications

WX ASOS at LGA (0.5 nm SW): PHONE 718-672-6317
WX AWOS-3PT at JRB (8 nm SW): 128.175 (212-425-1534)
WX ASOS at JFK (9 nm SE): PHONE 718-656-0956
WX ASOS at TEB (10 nm NW): 132.025 (201-393-0855)
WX ASOS at EWR (15 nm W): PHONE 973-621-2892
WX ASOS at HPN (18 nm NE): PHONE 914-288-0216
WX ASOS at CDW (20 nm W): 135.5 (973-575-4417)
WX AWOS-3 at LDJ (20 nm SW): 124.025 (908-862-7383)

Nearby radio navigation aids

VOR radial/distance  VOR name  Freq  Var
LGA at fieldLA GUARDIA VOR/DME113.1012W
TEBr125/9.7TETERBORO VOR/DME108.4011W
JFKr346/10.0KENNEDY VOR/DME115.9012W
CRIr018/10.3CANARSIE VOR/DME112.3011W
DPKr281/25.6DEER PARK VOR/DME117.7012W
COLr036/31.3COLTS NECK VOR/DME115.4011W
CMKr215/32.5CARMEL VOR/DME116.6012W
SAXr130/34.9SPARTA VORTAC115.7011W

 
NDB name  Hdg/Dist  Freq  Var  ID
TORBY108/12.221412WTE - .
BABYLON301/22.927514WBBN -... -... -.
CHATHAM097/25.725413WCAT -.-. .- -

Seaplane Base Services

Airframe service: NONE
Powerplant service: NONE

Runway Information

Runway NE/SW

Dimensions: 10000 x 500 ft. / 3048 x 152 m
Surface: water
RUNWAY NE  RUNWAY SW
Traffic pattern: leftleft

Runway NW/SE

Dimensions: 10000 x 500 ft. / 3048 x 152 m
Surface: water
RUNWAY NW  RUNWAY SE
Traffic pattern: leftleft

Runway N/S

Dimensions: 5000 x 500 ft. / 1524 x 152 m
Surface: water
RUNWAY N  RUNWAY S
Traffic pattern: leftleft

Seaplane Base Ownership and Management from official FAA records

Ownership: Privately-owned
Owner: EDO CORP.
Manager: J.J. FREY, FLOAT OPERATIONS
14-04 111 ST
COLLEGE POINT, NY 11356
Phone 718-445-6000

Additional Remarks

THIS IS A PVT FAC USED TO SUPPORT EDOS SPB OPERN.
FOR CD CTC NEW YORK APCH AT 516-683-2849.

Instrument Procedures

There are no published instrument procedures at 4NY2.

Some nearby airports with instrument procedures:

KLGA - LaGuardia Airport (0 nm SW)
6N5 - East 34th Street Heliport (5 nm SW)
KJRA - West 30th St Heliport (7 nm W)
KJRB - Downtown Manhattan/Wall Street Heliport (8 nm SW)
KJFK - John F Kennedy International Airport (9 nm SE)
KTEB - Teterboro Airport (10 nm NW)
KEWR - Newark Liberty International Airport (15 nm W)
KHPN - Westchester County Airport (18 nm NE)
KCDW - Essex County Airport (20 nm W)
KLDJ - Linden Airport (20 nm SW)
 
Loc | Ops | Rwys | IFR | FBO | Links
Com | Nav | Svcs | Stats | Notes
Area around 4NY2 (EDO Seaplane Base)
 
Road maps at: MapQuest Bing Google
 
Aerial photo
No photo
 
Sectional chart

 
Airport distance calculator
Flying to EDO Seaplane Base? Find the distance to fly.

From to 4NY2

Sunrise and sunset
Times for 19-Nov-2019
 Local
(UTC-5)
 Zulu
(UTC)
Morning civil twilight06:1811:18
Sunrise06:4811:48
Sunset16:3421:34
Evening civil twilight17:0322:03

Current date and time
Zulu (UTC)  19-Nov-2019 10:02:29
Local (UTC-5)  19-Nov-2019 05:02:29
 
METAR
KLGA 190951Z 30005KT 10SM SCT021 OVC080 06/03 A2973 RMK AO2 SLP066 T00610033
KNYC 
5nm W 
190951Z AUTO 00000KT 10SM SCT008 OVC019 05/04 A2975 RMK AO2 SLP066 T00500039 $
KJRB 
8nm SW 
190956Z AUTO 27004KT SCT011 OVC021 06/05 A2974 RMK AO2 SLP072 T00560050 PWINO
KTEB 
10nm NW 
190951Z 00000KT 10SM SCT005 OVC024 05/04 A2973 RMK AO2 RAE40 SLP066 P0001 T00500044
KJFK 
10nm SE 
190951Z 27005KT 10SM OVC014 06/06 A2975 RMK AO2 SLP072 T00560056 $
KEWR 
15nm SW 
190951Z 24005KT 10SM BKN007 OVC020 06/04 A2973 RMK AO2 RAE12 SLP068 CIG 006V009 P0000 T00560044 $
KHPN 
19nm NE 
190956Z 33006KT 10SM UP BKN065 03/01 A2971 RMK AO2 RAE50UPB50 SLP066 P0001 T00280011 $
KCDW 
20nm W 
190953Z AUTO 00000KT 10SM OVC012 06/04 A2973 RMK AO2 RAE31 SLP074 P0000 T00560044
KLDJ 
20nm SW 
190955Z AUTO 00000KT 7SM SCT005 OVC036 A2974 RMK AO2
TAF
KLGA 190537Z 1906/2012 34006KT 3SM -RA BR OVC006 FM191000 29006KT P6SM SCT009 OVC015 FM191300 29008KT P6SM SCT030 FM200000 33007KT P6SM BKN035 BKN150 FM200800 33008KT P6SM SCT020 BKN120
KTEB 
10nm NW 
190537Z 1906/2012 VRB03KT 2SM RA BR OVC006 FM190900 VRB02KT 5SM BR SCT007 OVC015 FM191300 29004KT P6SM SCT030 SCT200 FM200000 32005KT P6SM BKN035 BKN170 FM200800 33005KT P6SM SCT020 BKN120
KJFK 
10nm SE 
190537Z 1906/2012 02006KT 4SM -RA BR OVC006 FM190900 30007KT P6SM SCT009 OVC015 FM191300 28008KT P6SM SCT030 FM200000 32008KT P6SM BKN035 BKN150 FM200800 33008KT P6SM SCT020 BKN120
KEWR 
15nm SW 
190537Z 1906/2012 33006KT 3SM RA BR OVC006 FM190800 30004KT 6SM BR SCT009 OVC015 FM191200 28006KT P6SM SCT030 FM200000 32007KT P6SM BKN035 BKN150 FM200800 33007KT P6SM SCT020 BKN120
KHPN 
19nm NE 
190537Z 1906/2006 36006KT 2SM RA BR FEW010 BKN040 OVC060 FM191100 30005KT 5SM BR SCT006 OVC012 FM191400 30006KT P6SM SCT030 FM192300 33004KT P6SM BKN035 BKN170 FM200300 33005KT P6SM SCT025 BKN130 AMD NOT SKED
NOTAMs
Click for the latest NOTAMs
NOTAMs are issued by the DoD/FAA and will open in a separate window not controlled by AirNav.

 

 
 

Would you like to see your business listed on this page?

 If your business provides an interesting product or service to pilots, flight crews, aircraft, or users of the EDO Seaplane Base, you should consider listing it here.  To start the listing process, click on the button below
 
Add a business
 

Other Pages about EDO Seaplane Base

Update a link
 
Copyright © AirNav, LLC. All rights reserved. Privacy Policy  Contact